Divino, Brazil
Current Conditions -  °F | °C
As of 1:00 PM on Friday 31 Oct 2014 (Local Time) from SBIP Reporting Station
Broken Clouds Broken Clouds  
Wind Chill: 79°   Ceiling: 6000
Heat Index: 81°   Visibility: 6mi
Dew Point: 64°   Wind: 6mph
Humidity: 61%   Direction: 60°ENE
Pressure: 30"   Gusts: NA
Location:  20.61°S, 42.15°W
Report Text: SBIP 311500Z 06005KT 9999 SCT030 BKN060 26/18 Q1016
Loading
Personal Weather Stations






























Interactive Weather Map
Tropical Storm Tracking
New forecast layout! Learn more

10-Day Weather Forecast

Advertisements
Track Severe Weather on mobile